»·PEaware :: N198ME KEDU-KSAC

N198ME :: KEDU-KSAC

FLIGHT INFORMATION

Flight Status: Arrived
Operator: Privately registered:
United States
More flights under this callsign
Pilot: Gregory P. (35)
Aircraft: CESSNA 172 SKYHAWK
(C172)
More flights by this aircraft type
Origin: KEDU
Destination: KSAC Sacramento Executive
United States
More flights between these airports :: More routes between these airports
Route: SAC
File this flight plan on PilotEdge
Remarks: XP wx is set ifr, a few practice approaches
Altitude:
(Current/Filed)
3,000ft
Speed:
(Current/Filed)
105kts
Departed: 01-Aug-18 01:53 PM
Arrived: 01-Aug-18 02:38 PM
Distance/Time
Traveled:
Not Available
Distance/Time
To Go:
Arrived

Flight Plot

Page will automatically refresh every two minutes.

Flight plan parsing failed; only flown route is shown


Map Options




Map Legend


Flown Route
Filed Route
Departure Airport
Arrival Airport
Navaid (VOR, NDB)
Fix

Horizontal Profiles

Position Reports

Time Latitude Longitude Heading Altitude Ground
Speed
01-Aug-18 13:42 38.533300 -121.788137 116 66ft 0kts
01-Aug-18 13:43 38.533300 -121.788137 116 66ft 0kts
01-Aug-18 13:44 38.533300 -121.788137 116 66ft 0kts
01-Aug-18 13:45 38.533300 -121.788137 116 66ft 0kts
01-Aug-18 13:46 38.533300 -121.788137 116 66ft 0kts
01-Aug-18 13:47 38.533193 -121.787921 126 66ft 4kts
01-Aug-18 13:48 38.533061 -121.787719 91 66ft 1kts
01-Aug-18 13:49 38.535751 -121.786903 61 65ft 0kts
01-Aug-18 13:50 38.535751 -121.786903 61 65ft 0kts
01-Aug-18 13:51 38.535751 -121.786903 61 65ft 0kts
01-Aug-18 13:52 38.535751 -121.786903 61 65ft 0kts
01-Aug-18 13:53 38.535600 -121.786433 178 65ft 1kts
01-Aug-18 13:54 38.520466 -121.786133 165 472ft 71kts
01-Aug-18 13:55 38.507798 -121.765753 106 1160ft 78kts
01-Aug-18 13:56 38.503066 -121.743424 113 1687ft 82kts
01-Aug-18 13:57 38.495240 -121.711682 134 2440ft 80kts
01-Aug-18 13:58 38.480665 -121.698359 145 2950ft 79kts
01-Aug-18 13:59 38.462833 -121.679901 139 3191ft 88kts
01-Aug-18 14:00 38.443683 -121.662214 147 3115ft 88kts
01-Aug-18 14:01 38.423111 -121.642074 146 2537ft 98kts
01-Aug-18 14:02 38.401996 -121.622917 140 1982ft 90kts
01-Aug-18 14:03 38.404857 -121.594795 63 1970ft 96kts
01-Aug-18 14:04 38.420865 -121.570292 19 1577ft 85kts
01-Aug-18 14:05 38.439613 -121.553894 54 1340ft 85kts
01-Aug-18 14:06 38.460565 -121.541271 44 1181ft 89kts
01-Aug-18 14:07 38.477993 -121.523212 36 625ft 78kts
01-Aug-18 14:08 38.496705 -121.507987 32 401ft 82kts
01-Aug-18 14:09 38.512690 -121.517574 264 994ft 92kts
01-Aug-18 14:10 38.513357 -121.550836 268 1505ft 97kts
01-Aug-18 14:11 38.503898 -121.580884 223 1501ft 95kts
01-Aug-18 14:12 38.485288 -121.604303 218 1482ft 93kts
01-Aug-18 14:13 38.465544 -121.624047 213 1570ft 88kts
01-Aug-18 14:14 38.453454 -121.635859 228 1610ft 67kts
01-Aug-18 14:15 38.440841 -121.650129 224 1437ft 61kts
01-Aug-18 14:16 38.428686 -121.623828 113 1505ft 119kts
01-Aug-18 14:17 38.422139 -121.582788 118 1518ft 118kts
01-Aug-18 14:18 38.439845 -121.550635 0 1503ft 119kts
01-Aug-18 14:19 38.468964 -121.529707 22 999ft 123kts
01-Aug-18 14:20 38.496729 -121.507495 23 362ft 117kts
01-Aug-18 14:21 38.514840 -121.509276 263 1081ft 52kts
01-Aug-18 14:22 38.517033 -121.519512 261 1324ft 72kts
01-Aug-18 14:23 38.515469 -121.547675 263 1579ft 98kts
01-Aug-18 14:24 38.515025 -121.582864 266 1563ft 102kts
01-Aug-18 14:25 38.498899 -121.612306 215 1453ft 104kts
01-Aug-18 14:26 38.474922 -121.633659 214 1502ft 107kts
01-Aug-18 14:27 38.451499 -121.656105 208 1376ft 109kts
01-Aug-18 14:28 38.424163 -121.661458 184 1537ft 93kts
01-Aug-18 14:29 38.397291 -121.663620 181 1522ft 96kts
01-Aug-18 14:30 38.375810 -121.653154 114 1532ft 97kts
01-Aug-18 14:31 38.370287 -121.621418 50 1555ft 93kts
01-Aug-18 14:32 38.389076 -121.598104 26 1509ft 96kts
01-Aug-18 14:33 38.409810 -121.582724 41 1422ft 88kts
01-Aug-18 14:34 38.428875 -121.564491 27 1483ft 86kts
01-Aug-18 14:35 38.448950 -121.548728 28 1443ft 90kts
01-Aug-18 14:36 38.470224 -121.533027 34 901ft 88kts
01-Aug-18 14:37 38.488353 -121.514835 33 447ft 74kts
01-Aug-18 14:38 38.503647 -121.502107 31 107ft 67kts
01-Aug-18 14:39 38.511384 -121.496976 272 20ft 4kts
01-Aug-18 14:40 38.512671 -121.497785 216 20ft 0kts
01-Aug-18 14:41 38.512671 -121.497785 216 20ft 0kts
01-Aug-18 14:42 38.512671 -121.497785 216 20ft 0kts
01-Aug-18 14:43 38.512671 -121.497785 216 20ft 0kts
01-Aug-18 14:44 38.512671 -121.497785 216 20ft 0kts
01-Aug-18 14:45 38.512671 -121.497785 216 20ft 0kts
01-Aug-18 14:46 38.512671 -121.497785 216 20ft 0kts

Navigation Log

Ident Type
Flight plan parsing failed, navigation log unavailable